Latest Weather Observations for Fowlers Gap

IDN60801

Issued at 10:32 pm EST Tuesday 23 May 2017 (issued every 30 minutes, with the page automatically refreshed every 10 minutes)

About weather observations | Map of weather stations | Latest weather observations for NSW | Other Formats
Station Details ID: 046128 Name: FOWLERS GAP AWS Lat: -31.09 Lon: 141.70 Height: 181.0 m
Data from the previous 72 hours. | See also: Recent months at Fowlers Gap
Date/Time
EST
Temp
°C
App
Temp
°C
Dew
Point
°C
Rel
Hum
%
Delta-T
°C
Wind Press
QNH
hPa
Press
MSL
hPa
Rain since
9am
mm
Dir  Spd
km/h
Gust
km/h
Spd
kts
Gust
kts
23/10:30pm 13.3 10.2 7.1 66 3.0 SW 13 15 7 8 1019.3 1019.2 0.2
23/10:00pm 14.0 11.4 7.8 66 3.1 WSW 11 15 6 8 1019.0 1018.9 0.2
23/09:30pm 14.7 11.4 8.0 64 3.4 SW 15 15 8 8 1018.6 1018.5 0.2
23/09:00pm 15.4 13.3 8.4 63 3.6 SW 9 11 5 6 1018.5 1018.4 0.2
23/08:30pm 15.8 14.0 8.1 60 3.9 SW 7 9 4 5 1018.1 1018.0 0.2
23/08:00pm 16.7 14.6 8.1 57 4.4 SW 9 11 5 6 1017.8 1017.7 0.2
23/07:30pm 18.3 14.7 8.3 52 5.2 WSW 17 20 9 11 1017.3 1017.1 0.2
23/07:00pm 19.8 16.3 8.8 49 5.8 W 17 20 9 11 1016.8 1016.6 0.2
23/06:30pm 20.5 17.2 9.4 49 6.0 W 17 20 9 11 1016.5 1016.3 0.2
23/06:00pm 21.3 18.5 9.9 48 6.2 WSW 15 19 8 10 1016.2 1016.0 0.2
23/05:30pm 22.8 18.3 9.9 44 7.1 W 24 30 13 16 1015.7 1015.5 0.2
23/05:00pm 24.0 19.3 9.2 39 8.1 W 24 32 13 17 1015.2 1015.0 0.2
23/04:30pm 25.0 20.2 8.9 36 8.8 W 24 32 13 17 1014.9 1014.8 0.2
23/04:00pm 25.5 20.9 9.7 37 8.8 W 24 32 13 17 1014.7 1014.6 0.2
23/03:30pm 26.0 21.6 8.9 34 9.4 WNW 22 35 12 19 1014.7 1014.6 0.2
23/03:00pm 26.5 21.9 8.0 31 10.0 WNW 22 35 12 19 1014.6 1014.5 0.2
23/02:30pm 26.4 22.1 7.9 31 10.0 WNW 20 30 11 16 1014.6 1014.5 0.2
23/02:00pm 26.0 21.8 7.6 31 9.9 NW 19 26 10 14 1014.8 1014.7 0.2
23/01:30pm 25.8 21.7 7.9 32 9.6 NW 19 24 10 13 1015.2 1015.0 0.2
23/01:00pm 25.2 21.7 8.7 35 9.0 NW 17 24 9 13 1015.7 1015.5 0.2
23/12:30pm 24.8 20.9 8.7 36 8.7 NW 19 22 10 12 1016.3 1016.1 0.2
23/12:00pm 24.1 20.5 9.7 40 7.9 NW 19 26 10 14 1017.0 1016.8 0.2
23/11:30am 23.7 21.0 10.4 43 7.4 WNW 15 20 8 11 1017.3 1017.1 0.2
23/11:00am 22.5 19.9 11.9 51 6.0 NW 17 24 9 13 1017.8 1017.7 0.2
23/10:30am 22.0 19.4 12.0 53 5.7 NW 17 22 9 12 1018.0 1017.9 0.0
23/10:00am 21.6 19.0 11.9 54 5.5 WNW 17 22 9 12 1017.9 1017.8 0.0
23/09:30am 20.6 20.0 13.6 64 4.1 WNW 9 17 5 9 1017.8 1017.7 0.0
23/09:00am 18.5 19.2 13.4 72 2.9 W 2 6 1 3 1017.6 1017.5 0.0
23/08:30am 17.6 18.6 13.3 76 2.4 CALM 0 0 0 0 1017.5 1017.4 0.0
23/08:00am 16.6 15.8 12.9 79 2.1 ENE 9 15 5 8 1017.3 1017.1 0.0
23/07:30am 16.0 15.5 12.7 81 1.8 SW 7 9 4 5 1017.3 1017.1 0.0
23/07:00am 16.9 16.3 12.4 75 2.5 NE 7 11 4 6 1016.3 1016.1 0.0
23/06:30am 18.0 16.5 13.1 73 2.8 N 13 20 7 11 1016.5 1016.3 0.0
23/06:00am 18.3 15.7 13.2 72 2.9 NNE 19 30 10 16 1016.4 1016.2 0.0
23/05:30am 18.3 15.4 13.0 71 3.0 N 20 32 11 17 1016.5 1016.3 0.0
23/05:00am 17.1 15.6 13.0 77 2.3 NE 13 20 7 11 1016.3 1016.1 0.0
23/04:30am 17.2 15.8 12.3 73 2.7 NE 11 20 6 11 1016.4 1016.2 0.0
23/04:00am 18.4 15.5 12.8 70 3.2 NNE 20 30 11 16 1015.9 1015.7 0.0
23/03:30am 16.9 13.5 12.6 76 2.4 NNE 22 30 12 16 1016.4 1016.2 0.0
23/03:00am 16.1 14.9 10.4 69 3.0 NE 7 11 4 6 1016.7 1016.5 0.0
23/02:30am 15.7 14.5 9.6 67 3.2 SE 6 9 3 5 1016.8 1016.6 0.0
23/02:00am 16.1 15.0 9.8 66 3.3 SE 6 9 3 5 1016.8 1016.6 0.0
23/01:30am 17.3 17.0 10.0 62 3.9 NE 2 7 1 4 1017.0 1016.8 0.0
23/01:00am 17.9 17.7 10.5 62 4.0 NE 2 9 1 5 1017.4 1017.2 0.0
23/12:30am 18.2 17.1 10.8 62 4.0 S 7 9 4 5 1017.8 1017.7 0.0
23/12:00am 17.8 14.7 10.4 62 4.0 ENE 17 20 9 11 1017.3 1017.1 0.0
 
Date/Time
EST
Temp
°C
App
Temp
°C
Dew
Point
°C
Rel
Hum
%
Delta-T
°C
Wind Press
QNH
hPa
Press
MSL
hPa
Rain since
9am
mm
Dir  Spd
km/h
Gust
km/h
Spd
kts
Gust
kts
22/11:30pm 17.6 15.0 9.2 58 4.4 NE 13 20 7 11 1017.2 1017.0 0.0
22/11:00pm 19.6 16.5 10.3 55 5.0 NNE 17 24 9 13 1017.4 1017.2 0.0
22/10:30pm 20.7 17.4 10.8 53 5.5 NNE 19 26 10 14 1017.6 1017.5 0.0
22/10:00pm 20.7 17.2 10.2 51 5.7 NNE 19 26 10 14 1017.5 1017.4 0.0
22/09:30pm 19.9 16.9 9.2 50 5.7 NE 15 19 8 10 1017.4 1017.2 0.0
22/09:00pm 20.7 16.8 9.3 48 6.1 NNE 20 26 11 14 1017.3 1017.1 0.0
22/08:30pm 21.0 17.5 8.9 46 6.5 NNE 17 24 9 13 1017.6 1017.5 0.0
22/08:00pm 20.9 17.3 8.5 45 6.6 NNE 17 20 9 11 1017.4 1017.2 0.0
22/07:30pm 21.2 18.0 8.5 44 6.7 NNE 15 20 8 11 1017.4 1017.2 0.0
22/07:00pm 21.2 18.0 8.5 44 6.7 NNE 15 19 8 10 1017.2 1017.0 0.0
22/06:30pm 21.5 18.3 8.4 43 6.9 NNE 15 17 8 9 1016.9 1016.7 0.0
22/06:00pm 22.0 19.2 8.5 42 7.2 NNE 13 17 7 9 1016.6 1016.4 0.0
22/05:30pm 23.2 20.0 8.5 39 7.9 NNE 15 20 8 11 1016.5 1016.3 0.0
22/05:00pm 24.1 20.1 8.1 36 8.6 NNE 19 24 10 13 1016.5 1016.3 0.0
22/04:30pm 24.3 20.6 7.9 35 8.8 NNE 17 24 9 13 1016.5 1016.3 0.0
22/04:00pm 24.5 20.6 7.2 33 9.1 N 17 26 9 14 1016.7 1016.5 0.0
22/03:30pm 24.4 20.6 7.5 34 9.0 N 17 26 9 14 1017.0 1016.8 0.0
22/03:00pm 24.3 20.5 7.4 34 8.9 N 17 26 9 14 1017.1 1016.9 0.0
22/02:30pm 24.3 20.5 7.4 34 8.9 NNW 17 26 9 14 1017.7 1017.6 0.0
22/02:00pm 24.0 19.6 7.6 35 8.7 NNW 20 32 11 17 1017.9 1017.8 0.0
22/01:30pm 23.7 19.6 7.8 36 8.4 NNW 19 28 10 15 1018.3 1018.2 0.0
22/01:00pm 23.0 18.7 7.9 38 8.0 N 20 32 11 17 1018.6 1018.5 0.0
22/12:30pm 22.6 18.0 8.3 40 7.6 NNE 22 30 12 16 1019.0 1018.9 0.0
22/12:00pm 22.0 16.8 8.9 43 7.0 NNE 26 33 14 18 1019.6 1019.5 0.0
22/11:30am 20.8 15.3 7.4 42 6.9 NNE 26 37 14 20 1020.0 1019.9 0.0
22/11:00am 20.1 15.0 7.5 44 6.5 NNE 24 35 13 19 1020.5 1020.4 0.0
22/10:30am 19.0 13.7 6.8 45 6.2 NE 24 33 13 18 1021.1 1020.9 0.0
22/10:00am 17.7 14.1 6.6 48 5.5 NE 15 22 8 12 1021.6 1021.4 0.0
22/09:30am 16.6 12.5 6.4 51 5.0 NNE 17 24 9 13 1021.5 1021.3 0.0
22/09:00am 15.3 13.3 7.1 58 4.1 NE 7 11 4 6 1021.8 1021.6 0.0
22/08:30am 12.9 10.3 6.3 64 3.2 ENE 9 13 5 7 1021.2 1021.0 0.0
22/08:00am 11.3 7.5 6.0 70 2.5 NE 15 19 8 10 1020.9 1020.7 0.0
22/07:30am 9.3 5.3 5.1 75 1.9 ENE 15 17 8 9 1020.5 1020.4 0.0
22/07:00am 9.3 6.5 5.3 76 1.8 E 9 11 5 6 1020.4 1020.3 0.0
22/06:30am 9.9 6.8 5.5 74 2.0 ENE 11 13 6 7 1020.2 1020.1 0.0
22/06:00am 9.8 6.6 5.2 73 2.1 ENE 11 13 6 7 1020.1 1020.0 0.0
22/05:30am 10.1 6.9 5.3 72 2.2 ENE 11 13 6 7 1020.0 1019.9 0.0
22/05:00am 10.8 7.6 5.3 69 2.5 ENE 11 13 6 7 1019.9 1019.8 0.0
22/04:30am 11.3 7.8 5.4 67 2.7 ENE 13 15 7 8 1019.8 1019.7 0.0
22/04:00am 12.5 9.1 6.1 65 3.0 NE 13 15 7 8 1019.8 1019.7 0.0
22/03:30am 12.8 9.4 5.9 63 3.3 NE 13 17 7 9 1019.8 1019.7 0.0
22/03:00am 12.2 9.5 5.4 63 3.2 ENE 9 11 5 6 1019.8 1019.7 0.0
22/02:30am 13.3 10.3 5.9 61 3.5 NE 11 13 6 7 1020.1 1020.0 0.0
22/02:00am 14.4 10.7 6.3 58 3.9 NNE 15 19 8 10 1020.1 1020.0 0.0
22/01:30am 13.6 10.5 5.7 59 3.8 NE 11 15 6 8 1020.1 1020.0 0.0
22/01:00am 14.0 11.0 5.9 58 3.9 NE 11 15 6 8 1020.2 1020.1 0.0
22/12:30am 15.3 11.9 5.8 53 4.6 NE 13 17 7 9 1020.3 1020.2 0.0
22/12:00am 16.3 11.8 5.9 50 5.1 NE 19 26 10 14 1020.5 1020.4 0.0
 
Date/Time
EST
Temp
°C
App
Temp
°C
Dew
Point
°C
Rel
Hum
%
Delta-T
°C
Wind Press
QNH
hPa
Press
MSL
hPa
Rain since
9am
mm
Dir  Spd
km/h
Gust
km/h
Spd
kts
Gust
kts
21/11:30pm 15.6 12.2 6.1 53 4.6 NE 13 17 7 9 1020.5 1020.4 0.0
21/11:00pm 16.6 13.2 6.1 50 5.1 NE 13 20 7 11 1020.6 1020.5 0.0
21/10:30pm 15.2 12.5 5.7 53 4.6 NE 9 11 5 6 1020.6 1020.5 0.0
21/10:00pm 14.7 12.0 5.8 55 4.3 NE 9 13 5 7 1020.6 1020.5 0.0
21/09:30pm 15.1 12.7 5.3 52 4.7 ENE 7 9 4 5 1020.5 1020.4 0.0
21/09:00pm 17.2 14.2 6.1 48 5.5 NNE 11 13 6 7 1020.3 1020.2 0.0
21/08:30pm 17.4 14.5 6.3 48 5.5 NNE 11 15 6 8 1020.1 1020.0 0.0
21/08:00pm 16.9 14.2 5.8 48 5.4 NE 9 13 5 7 1019.8 1019.7 0.0
21/07:30pm 17.8 15.2 6.3 47 5.7 NNE 9 13 5 7 1019.6 1019.5 0.0
21/07:00pm 17.8 15.2 6.0 46 5.8 NE 9 9 5 5 1019.4 1019.3 0.0
21/06:30pm 18.5 15.8 5.7 43 6.3 NNE 9 11 5 6 1019.2 1019.1 0.0
21/06:00pm 19.8 17.1 5.5 39 7.1 NNE 9 11 5 6 1019.0 1018.9 0.0
21/05:30pm 21.3 17.7 5.2 35 8.0 NNE 13 17 7 9 1018.8 1018.7 0.0
21/05:00pm 22.0 18.5 5.4 34 8.3 NNE 13 19 7 10 1018.6 1018.5 0.0
21/04:30pm 22.4 19.3 5.4 33 8.6 NNE 11 20 6 11 1018.4 1018.3 0.0
21/04:00pm 22.5 19.4 5.4 33 8.6 NNE 11 15 6 8 1018.3 1018.2 0.0
21/03:30pm 22.5 19.0 5.4 33 8.6 N 13 20 7 11 1018.3 1018.2 0.0
21/03:00pm 22.9 19.5 5.8 33 8.7 N 13 17 7 9 1018.3 1018.2 0.0
21/02:30pm 22.5 18.7 5.9 34 8.5 NNE 15 22 8 12 1018.4 1018.3 0.0
21/02:00pm 22.0 18.1 5.4 34 8.3 NNE 15 24 8 13 1018.6 1018.5 0.0
21/01:30pm 22.0 18.9 5.4 34 8.3 NNE 11 19 6 10 1018.9 1018.8 0.0
21/01:00pm 21.5 17.5 5.0 34 8.2 NNE 15 20 8 11 1019.2 1019.1 0.0
21/12:30pm 22.2 18.4 6.0 35 8.2 NNE 15 20 8 11 1019.6 1019.5 0.0
21/12:00pm 21.8 17.9 6.9 38 7.7 NNE 17 24 9 13 1020.1 1020.0 0.0
21/11:30am 21.0 18.1 8.3 44 6.7 NNE 13 17 7 9 1020.4 1020.3 0.0
21/11:00am 20.1 17.8 9.1 49 5.8 NE 11 17 6 9 1020.7 1020.6 0.0
21/10:30am 18.6 16.3 9.1 54 5.0 NE 11 15 6 8 1021.0 1020.8 0.0
21/10:00am 18.0 17.7 8.8 55 4.8 CALM 0 0 0 0 1021.1 1020.9 0.0
21/09:30am 16.0 15.6 8.2 60 4.0 CALM 0 0 0 0 1021.0 1020.8 0.0
21/09:00am 12.6 11.8 6.4 66 3.0 CALM 0 0 0 0 1020.6 1020.5 0.0
21/08:30am 9.2 8.0 4.6 73 2.1 CALM 0 0 0 0 1020.4 1020.3 0.0
21/08:00am 7.5 6.1 3.7 77 1.6 CALM 0 0 0 0 1020.2 1020.1 0.0
21/07:30am 5.5 3.9 2.5 81 1.2 CALM 0 0 0 0 1019.8 1019.7 0.0
21/07:00am 5.3 3.3 2.3 81 1.2 ENE 2 6 1 3 1019.4 1019.3 0.0
21/06:30am 5.5 3.9 2.5 81 1.2 CALM 0 6 0 3 1019.2 1019.1 0.0
21/06:00am 5.5 3.9 2.3 80 1.3 CALM 0 0 0 0 1018.9 1018.8 0.0
21/05:30am 5.6 4.0 2.4 80 1.3 CALM 0 0 0 0 1018.8 1018.7 0.0
21/05:00am 6.3 4.8 2.9 79 1.4 CALM 0 0 0 0 1018.6 1018.5 0.0
21/04:30am 6.4 4.9 3.0 79 1.4 CALM 0 0 0 0 1018.5 1018.4 0.0
21/04:00am 6.8 4.2 3.2 78 1.5 WNW 6 9 3 5 1018.4 1018.3 0.0
21/03:30am 7.0 5.6 3.3 77 1.6 CALM 0 0 0 0 1018.5 1018.4 0.0
21/03:00am 7.3 5.1 3.4 76 1.7 WSW 4 7 2 4 1018.5 1018.4 0.0
21/02:30am 7.5 4.9 3.4 75 1.8 SSW 6 7 3 4 1018.5 1018.4 0.0
21/02:00am 8.2 5.7 4.0 75 1.8 WSW 6 7 3 4 1018.6 1018.5 0.0
21/01:30am 8.8 6.8 4.4 74 2.0 ENE 4 9 2 5 1018.6 1018.5 0.0
21/01:00am 8.8 6.2 4.2 73 2.0 ENE 7 15 4 8 1018.5 1018.4 0.0
21/12:30am 9.4 7.4 4.2 70 2.3 WSW 4 7 2 4 1018.5 1018.4 0.0
21/12:00am 9.7 7.3 4.3 69 2.4 WSW 6 7 3 4 1018.4 1018.3 0.0
 
Date/Time
EST
Temp
°C
App
Temp
°C
Dew
Point
°C
Rel
Hum
%
Delta-T
°C
Wind Press
QNH
hPa
Press
MSL
hPa
Rain since
9am
mm
Dir  Spd
km/h
Gust
km/h
Spd
kts
Gust
kts
20/11:30pm 9.7 6.7 4.3 69 2.4 SW 9 11 5 6 1018.4 1018.3 0.0
20/11:00pm 10.3 9.1 4.5 67 2.6 CALM 0 0 0 0 1018.4 1018.3 0.0

Other Formats:

Comma delimited format used in spreadsheet applications
http://www.bom.gov.au/fwo/IDN60801/IDN60801.94686.axf

JavaScript Object Notation format (JSON) in row-major order
http://www.bom.gov.au/fwo/IDN60801/IDN60801.94686.json